sensor_id;sensor_type;location;lat;lon;timestamp;pressure;altitude;pressure_sealevel;temperature;humidity
35778;BME280;21899;42.662;23.316;2023-07-29T00:00:25;94278.31;;;20.32;60.64
35778;BME280;21899;42.662;23.316;2023-07-29T00:02:53;94298.25;;;20.38;60.88
35778;BME280;21899;42.662;23.316;2023-07-29T00:05:18;94293.88;;;20.32;61.54
35778;BME280;21899;42.662;23.316;2023-07-29T00:07:43;94287.50;;;20.26;61.60
35778;BME280;21899;42.662;23.316;2023-07-29T00:10:09;94293.09;;;20.22;61.46
35778;BME280;21899;42.662;23.316;2023-07-29T00:12:34;94301.91;;;20.14;61.71
35778;BME280;21899;42.662;23.316;2023-07-29T00:15:00;94300.19;;;19.98;62.14
35778;BME280;21899;42.662;23.316;2023-07-29T00:17:25;94289.72;;;19.88;62.61
35778;BME280;21899;42.662;23.316;2023-07-29T00:19:51;94289.84;;;19.84;62.78
35778;BME280;21899;42.662;23.316;2023-07-29T00:22:16;94295.16;;;19.88;62.94
35778;BME280;21899;42.662;23.316;2023-07-29T00:24:42;94290.50;;;19.88;62.71
35778;BME280;21899;42.662;23.316;2023-07-29T00:27:07;94295.31;;;19.93;63.00
35778;BME280;21899;42.662;23.316;2023-07-29T00:29:32;94292.31;;;19.91;63.25
35778;BME280;21899;42.662;23.316;2023-07-29T00:31:58;94291.06;;;19.83;63.81
35778;BME280;21899;42.662;23.316;2023-07-29T00:34:23;94282.94;;;19.83;64.75
35778;BME280;21899;42.662;23.316;2023-07-29T00:36:49;94286.34;;;19.75;66.05
35778;BME280;21899;42.662;23.316;2023-07-29T00:39:14;94288.84;;;19.60;67.42
35778;BME280;21899;42.662;23.316;2023-07-29T00:41:40;94296.25;;;19.47;68.06
35778;BME280;21899;42.662;23.316;2023-07-29T00:44:05;94296.09;;;19.41;68.99
35778;BME280;21899;42.662;23.316;2023-07-29T00:46:32;94284.09;;;19.30;69.93
35778;BME280;21899;42.662;23.316;2023-07-29T00:48:59;94285.16;;;19.32;69.80
35778;BME280;21899;42.662;23.316;2023-07-29T00:51:25;94285.94;;;19.33;69.85
35778;BME280;21899;42.662;23.316;2023-07-29T00:53:50;94280.41;;;19.24;70.53
35778;BME280;21899;42.662;23.316;2023-07-29T00:56:16;94284.31;;;19.23;71.07
35778;BME280;21899;42.662;23.316;2023-07-29T00:58:42;94278.19;;;19.10;70.99
35778;BME280;21899;42.662;23.316;2023-07-29T01:01:07;94274.09;;;19.05;70.60
35778;BME280;21899;42.662;23.316;2023-07-29T01:03:33;94281.53;;;19.14;70.29
35778;BME280;21899;42.662;23.316;2023-07-29T01:06:05;94276.41;;;19.16;70.09
35778;BME280;21899;42.662;23.316;2023-07-29T01:09:01;94269.50;;;19.15;70.29
35778;BME280;21899;42.662;23.316;2023-07-29T01:11:57;94274.91;;;19.15;70.60
35778;BME280;21899;42.662;23.316;2023-07-29T01:14:45;94273.91;;;19.21;70.67
35778;BME280;21899;42.662;23.316;2023-07-29T01:17:22;94277.38;;;19.22;71.17
35778;BME280;21899;42.662;23.316;2023-07-29T01:19:52;94288.09;;;19.25;71.46
35778;BME280;21899;42.662;23.316;2023-07-29T01:22:21;94274.97;;;19.24;71.23
35778;BME280;21899;42.662;23.316;2023-07-29T01:24:46;94279.91;;;19.16;69.43
35778;BME280;21899;42.662;23.316;2023-07-29T01:27:12;94271.38;;;19.05;68.01
35778;BME280;21899;42.662;23.316;2023-07-29T01:29:37;94274.84;;;19.06;67.90
35778;BME280;21899;42.662;23.316;2023-07-29T01:32:17;94285.97;;;19.20;67.58
35778;BME280;21899;42.662;23.316;2023-07-29T01:34:48;94283.06;;;19.15;68.07
35778;BME280;21899;42.662;23.316;2023-07-29T01:37:19;94279.81;;;19.07;68.79
35778;BME280;21899;42.662;23.316;2023-07-29T01:39:49;94275.72;;;19.03;69.35
35778;BME280;21899;42.662;23.316;2023-07-29T01:42:15;94279.97;;;19.04;70.81
35778;BME280;21899;42.662;23.316;2023-07-29T01:44:41;94271.63;;;18.98;71.42
35778;BME280;21899;42.662;23.316;2023-07-29T01:47:08;94274.78;;;18.97;71.76
35778;BME280;21899;42.662;23.316;2023-07-29T01:49:33;94275.91;;;18.87;72.37
35778;BME280;21899;42.662;23.316;2023-07-29T01:51:58;94273.41;;;18.80;72.74
35778;BME280;21899;42.662;23.316;2023-07-29T01:54:24;94268.22;;;18.73;72.82
35778;BME280;21899;42.662;23.316;2023-07-29T01:56:49;94272.66;;;18.79;72.39
35778;BME280;21899;42.662;23.316;2023-07-29T01:59:16;94277.97;;;18.83;71.92
35778;BME280;21899;42.662;23.316;2023-07-29T02:01:42;94274.28;;;18.77;72.15
35778;BME280;21899;42.662;23.316;2023-07-29T02:04:08;94274.41;;;18.73;72.11
35778;BME280;21899;42.662;23.316;2023-07-29T02:06:33;94269.09;;;18.70;72.03
35778;BME280;21899;42.662;23.316;2023-07-29T02:08:58;94272.13;;;18.72;72.16
35778;BME280;21899;42.662;23.316;2023-07-29T02:11:24;94278.22;;;18.76;72.54
35778;BME280;21899;42.662;23.316;2023-07-29T02:13:56;94281.22;;;18.78;73.32
35778;BME280;21899;42.662;23.316;2023-07-29T02:16:22;94272.03;;;18.75;73.66
35778;BME280;21899;42.662;23.316;2023-07-29T02:18:50;94277.44;;;18.75;73.01
35778;BME280;21899;42.662;23.316;2023-07-29T02:21:16;94274.28;;;18.77;73.29
35778;BME280;21899;42.662;23.316;2023-07-29T02:23:41;94290.34;;;18.84;70.92
35778;BME280;21899;42.662;23.316;2023-07-29T02:26:07;94293.34;;;18.86;70.00
35778;BME280;21899;42.662;23.316;2023-07-29T02:28:33;94291.97;;;18.81;70.71
35778;BME280;21899;42.662;23.316;2023-07-29T02:31:20;94287.13;;;18.64;72.41
35778;BME280;21899;42.662;23.316;2023-07-29T02:33:46;94287.91;;;18.64;74.32
35778;BME280;21899;42.662;23.316;2023-07-29T02:36:12;94291.16;;;18.59;75.63
35778;BME280;21899;42.662;23.316;2023-07-29T02:38:38;94281.31;;;18.53;76.01
35778;BME280;21899;42.662;23.316;2023-07-29T02:41:04;94281.59;;;18.55;76.07
35778;BME280;21899;42.662;23.316;2023-07-29T02:43:29;94274.34;;;18.52;76.31
35778;BME280;21899;42.662;23.316;2023-07-29T02:45:55;94286.72;;;18.53;76.63
35778;BME280;21899;42.662;23.316;2023-07-29T02:48:20;94280.97;;;18.51;76.35
35778;BME280;21899;42.662;23.316;2023-07-29T02:50:45;94286.06;;;18.49;76.53
35778;BME280;21899;42.662;23.316;2023-07-29T02:53:11;94288.47;;;18.47;77.07
35778;BME280;21899;42.662;23.316;2023-07-29T02:55:39;94287.91;;;18.52;76.74
35778;BME280;21899;42.662;23.316;2023-07-29T02:58:05;94284.88;;;18.50;77.01
35778;BME280;21899;42.662;23.316;2023-07-29T03:00:33;94281.72;;;18.51;76.47
35778;BME280;21899;42.662;23.316;2023-07-29T03:02:59;94295.06;;;18.58;76.45
35778;BME280;21899;42.662;23.316;2023-07-29T03:05:27;94287.78;;;18.55;75.71
35778;BME280;21899;42.662;23.316;2023-07-29T03:07:52;94296.59;;;18.59;75.80
35778;BME280;21899;42.662;23.316;2023-07-29T03:10:18;94302.00;;;18.59;76.18
35778;BME280;21899;42.662;23.316;2023-07-29T03:12:43;94303.84;;;18.50;76.59
35778;BME280;21899;42.662;23.316;2023-07-29T03:15:09;94298.09;;;18.35;76.54
35778;BME280;21899;42.662;23.316;2023-07-29T03:17:34;94312.31;;;18.39;76.33
35778;BME280;21899;42.662;23.316;2023-07-29T03:19:59;94306.75;;;18.30;76.91
35778;BME280;21899;42.662;23.316;2023-07-29T03:22:25;94303.28;;;18.30;77.12
35778;BME280;21899;42.662;23.316;2023-07-29T03:24:50;94293.53;;;18.32;77.00
35778;BME280;21899;42.662;23.316;2023-07-29T03:27:15;94306.25;;;18.48;76.71
35778;BME280;21899;42.662;23.316;2023-07-29T03:29:41;94306.13;;;18.51;76.33
35778;BME280;21899;42.662;23.316;2023-07-29T03:32:07;94314.13;;;18.55;76.12
35778;BME280;21899;42.662;23.316;2023-07-29T03:34:33;94307.22;;;18.54;75.91
35778;BME280;21899;42.662;23.316;2023-07-29T03:36:59;94314.03;;;18.58;76.13
35778;BME280;21899;42.662;23.316;2023-07-29T03:39:24;94309.88;;;18.66;76.05
35778;BME280;21899;42.662;23.316;2023-07-29T03:41:50;94306.66;;;18.59;76.75
35778;BME280;21899;42.662;23.316;2023-07-29T03:44:15;94309.44;;;18.68;77.35
35778;BME280;21899;42.662;23.316;2023-07-29T03:46:40;94315.63;;;18.68;77.36
35778;BME280;21899;42.662;23.316;2023-07-29T03:49:06;94303.72;;;18.66;77.55
35778;BME280;21899;42.662;23.316;2023-07-29T03:51:31;94308.50;;;18.62;77.80
35778;BME280;21899;42.662;23.316;2023-07-29T03:53:56;94308.16;;;18.60;78.40
35778;BME280;21899;42.662;23.316;2023-07-29T03:56:22;94309.16;;;18.53;78.62
35778;BME280;21899;42.662;23.316;2023-07-29T03:58:47;94296.91;;;18.49;78.18
35778;BME280;21899;42.662;23.316;2023-07-29T04:01:14;94304.28;;;18.48;78.94
35778;BME280;21899;42.662;23.316;2023-07-29T04:03:40;94300.69;;;18.39;79.30
35778;BME280;21899;42.662;23.316;2023-07-29T04:06:05;94301.56;;;18.36;79.31
35778;BME280;21899;42.662;23.316;2023-07-29T04:08:31;94321.09;;;18.43;79.22
35778;BME280;21899;42.662;23.316;2023-07-29T04:10:56;94320.44;;;18.52;78.71
35778;BME280;21899;42.662;23.316;2023-07-29T04:13:22;94323.03;;;18.55;79.36
35778;BME280;21899;42.662;23.316;2023-07-29T04:15:48;94323.00;;;18.68;78.14
35778;BME280;21899;42.662;23.316;2023-07-29T04:18:13;94315.41;;;18.63;77.58
35778;BME280;21899;42.662;23.316;2023-07-29T04:20:39;94314.13;;;18.55;78.46
35778;BME280;21899;42.662;23.316;2023-07-29T04:23:04;94318.38;;;18.56;78.14
35778;BME280;21899;42.662;23.316;2023-07-29T04:25:30;94310.97;;;18.69;77.32
35778;BME280;21899;42.662;23.316;2023-07-29T04:27:55;94317.13;;;18.82;77.58
35778;BME280;21899;42.662;23.316;2023-07-29T04:30:22;94314.31;;;18.85;75.89
35778;BME280;21899;42.662;23.316;2023-07-29T04:32:48;94320.41;;;19.11;74.97
35778;BME280;21899;42.662;23.316;2023-07-29T04:35:13;94309.88;;;19.13;74.04
35778;BME280;21899;42.662;23.316;2023-07-29T04:37:40;94311.94;;;19.43;72.48
35778;BME280;21899;42.662;23.316;2023-07-29T04:40:07;94319.31;;;19.64;70.91
35778;BME280;21899;42.662;23.316;2023-07-29T04:42:33;94326.25;;;19.65;69.21
35778;BME280;21899;42.662;23.316;2023-07-29T04:44:58;94320.78;;;19.87;67.50
35778;BME280;21899;42.662;23.316;2023-07-29T04:47:23;94315.16;;;20.03;66.21
35778;BME280;21899;42.662;23.316;2023-07-29T04:49:49;94316.44;;;20.59;63.02
35778;BME280;21899;42.662;23.316;2023-07-29T04:52:14;94326.25;;;21.24;60.34
35778;BME280;21899;42.662;23.316;2023-07-29T04:54:40;94320.91;;;21.92;55.40
35778;BME280;21899;42.662;23.316;2023-07-29T04:57:06;94314.34;;;22.50;52.94
35778;BME280;21899;42.662;23.316;2023-07-29T04:59:31;94340.38;;;22.92;50.42
35778;BME280;21899;42.662;23.316;2023-07-29T05:01:57;94335.31;;;23.23;49.35
35778;BME280;21899;42.662;23.316;2023-07-29T05:04:23;94336.69;;;23.66;47.35
35778;BME280;21899;42.662;23.316;2023-07-29T05:06:48;94341.25;;;23.60;47.43
35778;BME280;21899;42.662;23.316;2023-07-29T05:09:15;94346.63;;;23.40;48.00
35778;BME280;21899;42.662;23.316;2023-07-29T05:11:42;94349.09;;;23.67;47.65
35778;BME280;21899;42.662;23.316;2023-07-29T05:14:08;94345.41;;;24.08;46.21
35778;BME280;21899;42.662;23.316;2023-07-29T05:16:35;94358.50;;;24.33;45.15
35778;BME280;21899;42.662;23.316;2023-07-29T05:19:00;94348.00;;;24.76;44.21
35778;BME280;21899;42.662;23.316;2023-07-29T05:21:26;94352.31;;;25.17;43.59
35778;BME280;21899;42.662;23.316;2023-07-29T05:23:51;94356.38;;;25.61;42.31
35778;BME280;21899;42.662;23.316;2023-07-29T05:26:16;94345.41;;;25.41;42.36
35778;BME280;21899;42.662;23.316;2023-07-29T05:28:42;94356.84;;;25.40;42.68
35778;BME280;21899;42.662;23.316;2023-07-29T05:31:07;94356.09;;;25.39;42.72
35778;BME280;21899;42.662;23.316;2023-07-29T05:33:32;94353.84;;;25.38;42.34
35778;BME280;21899;42.662;23.316;2023-07-29T05:35:58;94355.78;;;25.17;42.77
35778;BME280;21899;42.662;23.316;2023-07-29T05:38:23;94356.03;;;24.99;42.68
35778;BME280;21899;42.662;23.316;2023-07-29T05:40:49;94367.44;;;24.63;44.39
35778;BME280;21899;42.662;23.316;2023-07-29T05:43:14;94358.97;;;24.76;43.97
35778;BME280;21899;42.662;23.316;2023-07-29T05:45:40;94368.56;;;24.57;44.00
35778;BME280;21899;42.662;23.316;2023-07-29T05:48:05;94358.53;;;24.83;43.70
35778;BME280;21899;42.662;23.316;2023-07-29T05:50:31;94359.97;;;24.78;43.24
35778;BME280;21899;42.662;23.316;2023-07-29T05:52:56;94359.13;;;25.07;43.28
35778;BME280;21899;42.662;23.316;2023-07-29T05:55:21;94360.84;;;25.04;43.37
35778;BME280;21899;42.662;23.316;2023-07-29T05:57:47;94365.22;;;24.96;43.01
35778;BME280;21899;42.662;23.316;2023-07-29T06:00:12;94362.47;;;24.96;43.09
35778;BME280;21899;42.662;23.316;2023-07-29T06:02:38;94361.50;;;24.99;42.96
35778;BME280;21899;42.662;23.316;2023-07-29T06:05:04;94359.63;;;25.25;42.43
35778;BME280;21899;42.662;23.316;2023-07-29T06:07:30;94363.13;;;25.26;41.91
35778;BME280;21899;42.662;23.316;2023-07-29T06:09:57;94364.81;;;25.03;42.84
35778;BME280;21899;42.662;23.316;2023-07-29T06:12:23;94355.56;;;25.01;42.97
35778;BME280;21899;42.662;23.316;2023-07-29T06:14:49;94354.56;;;25.18;42.82
35778;BME280;21899;42.662;23.316;2023-07-29T06:17:14;94354.59;;;25.38;42.46
35778;BME280;21899;42.662;23.316;2023-07-29T06:19:39;94360.00;;;25.53;42.51
35778;BME280;21899;42.662;23.316;2023-07-29T06:22:05;94349.41;;;25.26;42.07
35778;BME280;21899;42.662;23.316;2023-07-29T06:24:31;94346.97;;;25.28;42.30
35778;BME280;21899;42.662;23.316;2023-07-29T06:26:56;94344.34;;;24.99;42.55
35778;BME280;21899;42.662;23.316;2023-07-29T06:29:22;94341.38;;;24.82;43.35
35778;BME280;21899;42.662;23.316;2023-07-29T06:31:47;94351.97;;;24.60;43.27
35778;BME280;21899;42.662;23.316;2023-07-29T06:34:12;94350.41;;;24.39;45.14
35778;BME280;21899;42.662;23.316;2023-07-29T06:36:38;94348.41;;;24.25;44.68
35778;BME280;21899;42.662;23.316;2023-07-29T06:39:03;94343.13;;;24.36;45.12
35778;BME280;21899;42.662;23.316;2023-07-29T06:41:29;94342.53;;;24.46;45.33
35778;BME280;21899;42.662;23.316;2023-07-29T06:43:54;94338.78;;;24.44;45.31
35778;BME280;21899;42.662;23.316;2023-07-29T06:46:19;94336.88;;;24.50;44.93
35778;BME280;21899;42.662;23.316;2023-07-29T06:48:45;94330.44;;;24.53;44.94
35778;BME280;21899;42.662;23.316;2023-07-29T06:51:10;94331.13;;;24.48;44.45
35778;BME280;21899;42.662;23.316;2023-07-29T06:53:35;94332.72;;;24.55;45.41
35778;BME280;21899;42.662;23.316;2023-07-29T06:56:01;94336.69;;;24.54;44.77
35778;BME280;21899;42.662;23.316;2023-07-29T06:58:27;94341.13;;;24.51;45.13
35778;BME280;21899;42.662;23.316;2023-07-29T07:00:52;94344.53;;;24.46;45.69
35778;BME280;21899;42.662;23.316;2023-07-29T07:03:17;94333.13;;;24.48;45.08
35778;BME280;21899;42.662;23.316;2023-07-29T07:05:43;94338.22;;;24.40;43.88
35778;BME280;21899;42.662;23.316;2023-07-29T07:08:08;94339.91;;;24.52;45.17
35778;BME280;21899;42.662;23.316;2023-07-29T07:10:34;94335.53;;;24.60;43.86
35778;BME280;21899;42.662;23.316;2023-07-29T07:12:59;94340.81;;;24.78;44.45
35778;BME280;21899;42.662;23.316;2023-07-29T07:15:25;94334.28;;;24.90;43.63
35778;BME280;21899;42.662;23.316;2023-07-29T07:17:51;94334.59;;;24.98;43.29
35778;BME280;21899;42.662;23.316;2023-07-29T07:20:17;94329.34;;;25.14;42.77
35778;BME280;21899;42.662;23.316;2023-07-29T07:22:42;94335.13;;;25.36;43.13
35778;BME280;21899;42.662;23.316;2023-07-29T07:25:08;94336.09;;;25.53;42.18
35778;BME280;21899;42.662;23.316;2023-07-29T07:27:33;94328.41;;;25.57;42.65
35778;BME280;21899;42.662;23.316;2023-07-29T07:29:59;94325.66;;;25.57;42.42
35778;BME280;21899;42.662;23.316;2023-07-29T07:32:24;94328.13;;;25.55;42.67
35778;BME280;21899;42.662;23.316;2023-07-29T07:34:49;94325.34;;;25.50;43.16
35778;BME280;21899;42.662;23.316;2023-07-29T07:37:15;94313.97;;;25.37;42.91
35778;BME280;21899;42.662;23.316;2023-07-29T07:39:41;94314.72;;;25.37;43.13
35778;BME280;21899;42.662;23.316;2023-07-29T07:42:06;94308.97;;;25.35;42.84
35778;BME280;21899;42.662;23.316;2023-07-29T07:44:33;94319.28;;;25.66;42.45
35778;BME280;21899;42.662;23.316;2023-07-29T07:46:58;94323.47;;;25.87;42.04
35778;BME280;21899;42.662;23.316;2023-07-29T07:49:24;94318.94;;;26.04;41.85
35778;BME280;21899;42.662;23.316;2023-07-29T07:51:49;94326.78;;;26.17;41.39
35778;BME280;21899;42.662;23.316;2023-07-29T07:54:15;94325.56;;;26.18;40.60
35778;BME280;21899;42.662;23.316;2023-07-29T07:56:40;94326.84;;;26.22;41.11
35778;BME280;21899;42.662;23.316;2023-07-29T07:59:05;94331.69;;;26.07;40.35
35778;BME280;21899;42.662;23.316;2023-07-29T08:01:38;94336.91;;;25.85;40.48
35778;BME280;21899;42.662;23.316;2023-07-29T08:04:04;94334.13;;;25.80;41.13
35778;BME280;21899;42.662;23.316;2023-07-29T08:06:30;94327.03;;;25.67;40.90
35778;BME280;21899;42.662;23.316;2023-07-29T08:08:56;94316.81;;;25.68;40.94
35778;BME280;21899;42.662;23.316;2023-07-29T08:11:21;94323.16;;;25.80;41.56
35778;BME280;21899;42.662;23.316;2023-07-29T08:13:47;94324.34;;;25.99;41.67
35778;BME280;21899;42.662;23.316;2023-07-29T08:16:13;94330.25;;;25.92;41.68
35778;BME280;21899;42.662;23.316;2023-07-29T08:18:38;94339.03;;;25.96;41.03
35778;BME280;21899;42.662;23.316;2023-07-29T08:21:04;94345.47;;;25.93;40.78
35778;BME280;21899;42.662;23.316;2023-07-29T08:23:34;94334.25;;;25.91;40.98
35778;BME280;21899;42.662;23.316;2023-07-29T08:26:02;94328.47;;;25.89;39.93
35778;BME280;21899;42.662;23.316;2023-07-29T08:28:33;94322.50;;;25.90;40.62
35778;BME280;21899;42.662;23.316;2023-07-29T08:30:58;94326.19;;;26.07;40.12
35778;BME280;21899;42.662;23.316;2023-07-29T08:33:24;94326.56;;;26.20;39.59
35778;BME280;21899;42.662;23.316;2023-07-29T08:35:50;94327.22;;;26.10;39.82
35778;BME280;21899;42.662;23.316;2023-07-29T08:38:16;94326.84;;;26.22;39.67
35778;BME280;21899;42.662;23.316;2023-07-29T08:41:06;94324.38;;;26.30;39.47
35778;BME280;21899;42.662;23.316;2023-07-29T08:43:38;94320.56;;;26.47;39.34
35778;BME280;21899;42.662;23.316;2023-07-29T08:46:04;94318.72;;;26.70;38.80
35778;BME280;21899;42.662;23.316;2023-07-29T08:51:03;94323.13;;;26.93;38.17
35778;BME280;21899;42.662;23.316;2023-07-29T08:53:29;94313.56;;;26.83;37.68
35778;BME280;21899;42.662;23.316;2023-07-29T08:55:55;94314.59;;;26.85;37.29
35778;BME280;21899;42.662;23.316;2023-07-29T08:58:21;94311.06;;;26.79;37.30
35778;BME280;21899;42.662;23.316;2023-07-29T09:00:47;94322.34;;;26.87;36.46
35778;BME280;21899;42.662;23.316;2023-07-29T09:03:13;94305.38;;;26.88;35.08
35778;BME280;21899;42.662;23.316;2023-07-29T09:05:39;94309.97;;;27.08;34.86
35778;BME280;21899;42.662;23.316;2023-07-29T09:08:04;94306.03;;;27.20;34.13
35778;BME280;21899;42.662;23.316;2023-07-29T09:10:35;94303.75;;;27.13;33.55
35778;BME280;21899;42.662;23.316;2023-07-29T09:13:01;94311.53;;;27.26;33.94
35778;BME280;21899;42.662;23.316;2023-07-29T09:15:32;94305.38;;;27.36;34.26
35778;BME280;21899;42.662;23.316;2023-07-29T09:17:58;94295.38;;;27.33;34.22
35778;BME280;21899;42.662;23.316;2023-07-29T09:20:28;94295.09;;;27.31;33.99
35778;BME280;21899;42.662;23.316;2023-07-29T09:22:54;94293.69;;;27.47;34.03
35778;BME280;21899;42.662;23.316;2023-07-29T09:25:27;94288.97;;;27.69;34.04
35778;BME280;21899;42.662;23.316;2023-07-29T09:28:00;94290.28;;;27.90;32.69
35778;BME280;21899;42.662;23.316;2023-07-29T09:30:26;94291.81;;;27.97;32.33
35778;BME280;21899;42.662;23.316;2023-07-29T09:32:58;94289.25;;;27.82;31.47
35778;BME280;21899;42.662;23.316;2023-07-29T09:35:25;94289.00;;;27.75;32.57
35778;BME280;21899;42.662;23.316;2023-07-29T09:37:51;94278.75;;;27.70;32.37
35778;BME280;21899;42.662;23.316;2023-07-29T09:40:17;94288.50;;;27.76;31.77
35778;BME280;21899;42.662;23.316;2023-07-29T09:42:55;94286.50;;;27.82;31.76
35778;BME280;21899;42.662;23.316;2023-07-29T09:45:25;94278.00;;;27.80;31.80
35778;BME280;21899;42.662;23.316;2023-07-29T09:47:52;94276.06;;;27.97;31.44
35778;BME280;21899;42.662;23.316;2023-07-29T09:50:18;94284.81;;;28.24;31.11
35778;BME280;21899;42.662;23.316;2023-07-29T09:52:44;94269.56;;;28.00;32.05
35778;BME280;21899;42.662;23.316;2023-07-29T09:55:13;94259.53;;;27.97;31.40
35778;BME280;21899;42.662;23.316;2023-07-29T09:57:40;94268.81;;;28.05;31.93
35778;BME280;21899;42.662;23.316;2023-07-29T10:00:06;94260.53;;;28.05;29.98
35778;BME280;21899;42.662;23.316;2023-07-29T10:02:39;94267.28;;;28.27;30.46
35778;BME280;21899;42.662;23.316;2023-07-29T10:05:07;94262.81;;;28.51;30.37
35778;BME280;21899;42.662;23.316;2023-07-29T10:07:35;94260.28;;;28.70;30.37
35778;BME280;21899;42.662;23.316;2023-07-29T10:10:02;94257.50;;;28.70;29.47
35778;BME280;21899;42.662;23.316;2023-07-29T10:12:30;94265.47;;;28.90;29.19
35778;BME280;21899;42.662;23.316;2023-07-29T10:14:59;94246.72;;;28.83;28.83
35778;BME280;21899;42.662;23.316;2023-07-29T10:17:26;94249.50;;;28.72;29.59
35778;BME280;21899;42.662;23.316;2023-07-29T10:19:51;94249.53;;;28.61;29.48
35778;BME280;21899;42.662;23.316;2023-07-29T10:22:20;94251.78;;;28.57;29.52
35778;BME280;21899;42.662;23.316;2023-07-29T10:24:47;94246.03;;;28.60;28.66
35778;BME280;21899;42.662;23.316;2023-07-29T10:27:17;94231.75;;;28.62;28.86
35778;BME280;21899;42.662;23.316;2023-07-29T10:29:43;94232.22;;;28.77;29.13
35778;BME280;21899;42.662;23.316;2023-07-29T10:32:11;94225.38;;;28.94;28.77
35778;BME280;21899;42.662;23.316;2023-07-29T10:34:37;94219.56;;;29.20;28.72
35778;BME280;21899;42.662;23.316;2023-07-29T10:37:03;94220.16;;;29.48;28.37
35778;BME280;21899;42.662;23.316;2023-07-29T10:43:09;94219.91;;;29.87;27.79
35778;BME280;21899;42.662;23.316;2023-07-29T10:45:39;94220.28;;;30.07;28.12
35778;BME280;21899;42.662;23.316;2023-07-29T10:49:10;94211.63;;;30.22;27.48
35778;BME280;21899;42.662;23.316;2023-07-29T10:51:28;94216.88;;;30.25;27.24
35778;BME280;21899;42.662;23.316;2023-07-29T10:54:00;94211.22;;;30.12;27.14
35778;BME280;21899;42.662;23.316;2023-07-29T10:56:36;94208.75;;;30.03;26.83
35778;BME280;21899;42.662;23.316;2023-07-29T11:01:51;94213.03;;;29.64;27.47
35778;BME280;21899;42.662;23.316;2023-07-29T11:17:39;94188.09;;;30.15;26.30
35778;BME280;21899;42.662;23.316;2023-07-29T11:20:05;94188.47;;;30.30;26.14
35778;BME280;21899;42.662;23.316;2023-07-29T11:22:32;94188.88;;;30.40;25.56
35778;BME280;21899;42.662;23.316;2023-07-29T11:24:58;94186.72;;;30.57;25.68
35778;BME280;21899;42.662;23.316;2023-07-29T11:27:24;94185.16;;;30.61;25.45
35778;BME280;21899;42.662;23.316;2023-07-29T11:29:49;94184.69;;;30.57;25.70
35778;BME280;21899;42.662;23.316;2023-07-29T11:32:15;94181.94;;;30.57;25.69
35778;BME280;21899;42.662;23.316;2023-07-29T11:34:41;94191.13;;;30.41;25.52
35778;BME280;21899;42.662;23.316;2023-07-29T11:37:10;94181.41;;;30.35;26.53
35778;BME280;21899;42.662;23.316;2023-07-29T11:39:42;94193.44;;;30.37;26.12
35778;BME280;21899;42.662;23.316;2023-07-29T11:42:11;94172.25;;;30.45;26.08
35778;BME280;21899;42.662;23.316;2023-07-29T11:44:37;94185.41;;;30.39;25.77
35778;BME280;21899;42.662;23.316;2023-07-29T11:47:09;94165.88;;;30.32;25.64
35778;BME280;21899;42.662;23.316;2023-07-29T11:49:35;94165.06;;;30.07;25.97
35778;BME280;21899;42.662;23.316;2023-07-29T11:52:03;94170.47;;;30.18;25.72
35778;BME280;21899;42.662;23.316;2023-07-29T11:54:29;94164.75;;;30.16;25.32
35778;BME280;21899;42.662;23.316;2023-07-29T11:56:55;94164.78;;;30.11;25.30
35778;BME280;21899;42.662;23.316;2023-07-29T11:59:21;94163.94;;;30.21;26.06
35778;BME280;21899;42.662;23.316;2023-07-29T12:01:46;94157.13;;;30.28;25.18
35778;BME280;21899;42.662;23.316;2023-07-29T12:04:12;94157.94;;;30.47;25.52
35778;BME280;21899;42.662;23.316;2023-07-29T12:06:38;94159.38;;;30.53;24.51
35778;BME280;21899;42.662;23.316;2023-07-29T12:09:04;94149.69;;;30.66;24.77
35778;BME280;21899;42.662;23.316;2023-07-29T12:11:30;94150.28;;;30.58;25.14
35778;BME280;21899;42.662;23.316;2023-07-29T12:13:55;94150.75;;;30.63;25.56
35778;BME280;21899;42.662;23.316;2023-07-29T12:16:21;94144.69;;;30.64;24.98
35778;BME280;21899;42.662;23.316;2023-07-29T12:18:46;94140.72;;;30.84;25.88
35778;BME280;21899;42.662;23.316;2023-07-29T12:21:14;94142.66;;;30.89;24.27
35778;BME280;21899;42.662;23.316;2023-07-29T12:23:39;94131.16;;;30.85;25.01
35778;BME280;21899;42.662;23.316;2023-07-29T12:26:05;94142.59;;;30.94;24.96
35778;BME280;21899;42.662;23.316;2023-07-29T12:28:30;94126.63;;;30.87;25.71
35778;BME280;21899;42.662;23.316;2023-07-29T12:30:56;94139.09;;;30.94;24.91
35778;BME280;21899;42.662;23.316;2023-07-29T12:33:37;94136.75;;;30.98;25.40
35778;BME280;21899;42.662;23.316;2023-07-29T12:36:04;94142.97;;;31.04;24.43
35778;BME280;21899;42.662;23.316;2023-07-29T12:38:30;94123.63;;;30.85;25.04
35778;BME280;21899;42.662;23.316;2023-07-29T12:40:56;94129.81;;;30.91;24.79
35778;BME280;21899;42.662;23.316;2023-07-29T12:43:22;94141.34;;;31.14;24.23
35778;BME280;21899;42.662;23.316;2023-07-29T12:45:50;94147.47;;;31.07;23.84
35778;BME280;21899;42.662;23.316;2023-07-29T12:48:16;94128.69;;;30.81;24.18
35778;BME280;21899;42.662;23.316;2023-07-29T12:50:41;94141.16;;;30.88;23.46
35778;BME280;21899;42.662;23.316;2023-07-29T12:53:08;94128.22;;;30.77;23.65
35778;BME280;21899;42.662;23.316;2023-07-29T12:55:35;94141.16;;;30.88;23.95
35778;BME280;21899;42.662;23.316;2023-07-29T12:58:01;94130.50;;;30.97;24.04
35778;BME280;21899;42.662;23.316;2023-07-29T13:00:27;94135.44;;;31.23;23.91
35778;BME280;21899;42.662;23.316;2023-07-29T13:02:52;94131.78;;;31.33;23.48
35778;BME280;21899;42.662;23.316;2023-07-29T13:05:18;94129.69;;;31.39;23.32
35778;BME280;21899;42.662;23.316;2023-07-29T13:07:43;94128.09;;;31.44;23.89
35778;BME280;21899;42.662;23.316;2023-07-29T13:10:09;94136.25;;;31.55;23.34